Time;durP1;ratioP1;P1;durP2;ratioP2;P2;SDS_P1;SDS_P2;PMS_P1;PMS_P2;Temp;Humidity;BMP_temperature;BMP_pressure;BME280_temperature;BME280_humidity;BME280_pressure;Samples;Min_cycle;Max_cycle;Signal;HPM_P1;HPM_P2
2023/03/17 00:00:47;;;;;;;7.47;5.55;;;6.90;99.90;;;;;;5018377;28;20602;-62
2023/03/17 00:03:35;;;;;;;10.60;5.60;;;7.00;99.90;;;;;;5029846;28;20048;-63
2023/03/17 00:06:03;;;;;;;7.60;5.40;;;7.00;99.90;;;;;;5031750;28;20069;-63
2023/03/17 00:08:34;;;;;;;8.30;5.28;;;7.00;99.90;;;;;;5018793;28;20095;-62
2023/03/17 00:11:00;;;;;;;10.13;5.30;;;7.00;99.90;;;;;;5028116;28;20045;-63
2023/03/17 00:13:26;;;;;;;7.03;4.97;;;7.10;99.90;;;;;;5031608;28;20120;-63
2023/03/17 00:16:01;;;;;;;9.45;4.82;;;7.20;99.90;;;;;;5028201;28;20392;-62
2023/03/17 00:18:29;;;;;;;9.40;5.25;;;7.20;99.90;;;;;;5011819;28;20413;-63
2023/03/17 00:20:55;;;;;;;7.25;5.00;;;7.30;99.90;;;;;;5031239;28;20487;-63
2023/03/17 00:23:23;;;;;;;7.53;4.55;;;7.30;99.90;;;;;;5026608;28;20152;-63
2023/03/17 00:25:50;;;;;;;8.25;5.10;;;7.40;99.90;;;;;;5012793;28;20044;-62
2023/03/17 00:28:26;;;;;;;8.82;4.97;;;7.40;99.90;;;;;;5029524;28;20052;-63
2023/03/17 00:30:57;;;;;;;11.48;5.25;;;7.40;99.90;;;;;;5031624;28;20498;-63
2023/03/17 00:33:26;;;;;;;7.03;4.60;;;7.40;99.90;;;;;;5027740;28;20121;-63
2023/03/17 00:35:53;;;;;;;8.27;5.30;;;7.50;99.90;;;;;;5016337;28;20045;-63
2023/03/17 00:38:20;;;;;;;9.13;5.35;;;7.50;99.90;;;;;;5030980;28;20049;-63
2023/03/17 00:40:46;;;;;;;7.13;5.03;;;7.60;99.90;;;;;;5022028;28;20053;-63
2023/03/17 00:43:12;;;;;;;8.45;5.22;;;7.60;99.90;;;;;;5027248;28;20606;-62
2023/03/17 00:45:39;;;;;;;7.65;4.88;;;7.60;99.90;;;;;;5031040;28;20123;-63
2023/03/17 00:48:13;;;;;;;8.48;5.03;;;7.70;99.90;;;;;;5031181;28;20056;-63
2023/03/17 00:50:40;;;;;;;7.20;4.93;;;7.70;99.90;;;;;;5023082;28;20112;-62
2023/03/17 00:53:09;;;;;;;6.90;4.70;;;7.70;99.90;;;;;;5030357;28;20109;-63
2023/03/17 00:55:36;;;;;;;10.20;5.03;;;7.70;99.90;;;;;;5031092;28;20514;-63
2023/03/17 00:58:09;;;;;;;8.05;5.20;;;7.70;99.90;;;;;;5023752;28;20037;-62
2023/03/17 01:00:35;;;;;;;8.10;5.03;;;7.60;99.90;;;;;;5030694;28;20037;-63
2023/03/17 01:03:01;;;;;;;7.00;5.00;;;7.60;99.90;;;;;;5034443;28;20053;-63
2023/03/17 01:05:27;;;;;;;7.68;5.20;;;7.50;99.90;;;;;;5035051;28;20053;-63
2023/03/17 01:07:54;;;;;;;8.45;5.53;;;7.50;99.90;;;;;;5028111;28;20104;-63
2023/03/17 01:10:24;;;;;;;7.03;4.55;;;7.40;99.90;;;;;;5033718;28;20033;-63
2023/03/17 01:12:50;;;;;;;6.88;4.95;;;7.20;99.90;;;;;;5034826;28;20037;-63
2023/03/17 01:15:17;;;;;;;8.80;5.72;;;7.20;99.90;;;;;;5007550;28;20073;-63
2023/03/17 01:17:43;;;;;;;9.98;5.93;;;7.20;99.90;;;;;;5028807;28;20428;-63
2023/03/17 01:20:27;;;;;;;8.00;5.60;;;7.20;99.90;;;;;;5034334;28;20103;-62
2023/03/17 01:22:54;;;;;;;8.65;5.07;;;7.20;99.90;;;;;;5031633;28;20072;-62
2023/03/17 01:25:20;;;;;;;9.55;5.10;;;7.20;99.90;;;;;;5028148;28;20034;-63
2023/03/17 01:27:46;;;;;;;6.40;4.88;;;7.20;99.90;;;;;;5024377;28;20121;-63
2023/03/17 01:30:21;;;;;;;9.25;5.40;;;7.20;99.90;;;;;;5031374;28;20042;-63
2023/03/17 01:32:47;;;;;;;7.80;4.93;;;7.20;99.90;;;;;;5026843;28;20044;-62
2023/03/17 01:35:15;;;;;;;8.30;5.55;;;7.20;99.90;;;;;;5033893;28;20045;-63
2023/03/17 01:37:41;;;;;;;8.63;4.80;;;7.30;99.90;;;;;;5032796;28;20103;-62
2023/03/17 01:40:08;;;;;;;7.00;4.80;;;7.30;99.90;;;;;;5029658;28;20407;-62
2023/03/17 01:42:34;;;;;;;7.60;5.03;;;7.30;99.90;;;;;;5024519;28;20052;-63
2023/03/17 01:45:04;;;;;;;6.82;4.97;;;7.30;99.90;;;;;;5033836;28;20034;-63
2023/03/17 01:47:30;;;;;;;9.07;5.22;;;7.30;99.90;;;;;;5018505;28;20132;-63
2023/03/17 01:50:01;;;;;;;6.95;4.97;;;7.30;99.90;;;;;;5019072;28;20475;-63
2023/03/17 01:52:27;;;;;;;8.70;4.68;;;7.30;99.90;;;;;;5026581;28;20053;-63
2023/03/17 01:54:54;;;;;;;8.27;5.28;;;7.20;99.90;;;;;;5032888;28;20046;-63
2023/03/17 01:57:22;;;;;;;8.43;5.07;;;7.30;99.90;;;;;;5026646;28;20514;-63
2023/03/17 02:00:17;;;;;;;7.30;5.00;;;7.20;99.90;;;;;;5032920;28;20045;-63
2023/03/17 02:02:45;;;;;;;9.77;5.78;;;7.30;99.90;;;;;;5025217;28;20045;-63
2023/03/17 02:05:15;;;;;;;8.13;5.43;;;7.30;99.90;;;;;;5023012;28;20046;-63
2023/03/17 02:07:41;;;;;;;10.25;6.20;;;7.20;99.90;;;;;;5027447;28;20037;-63
2023/03/17 02:10:08;;;;;;;8.55;5.57;;;7.20;99.90;;;;;;5030274;28;20041;-63
2023/03/17 02:12:35;;;;;;;8.27;5.10;;;7.20;99.90;;;;;;5024508;28;20492;-63
2023/03/17 02:15:02;;;;;;;9.05;5.25;;;7.20;99.90;;;;;;5032843;28;20118;-62
2023/03/17 02:17:28;;;;;;;8.10;5.40;;;7.10;99.90;;;;;;5003153;28;20083;-63
2023/03/17 02:19:54;;;;;;;7.07;5.10;;;7.10;99.90;;;;;;5029441;28;20073;-63
2023/03/17 02:22:20;;;;;;;9.85;5.15;;;7.10;99.90;;;;;;5017687;28;20033;-63
2023/03/17 02:24:52;;;;;;;8.02;5.38;;;7.10;99.90;;;;;;5027910;28;20041;-63
2023/03/17 02:27:28;;;;;;;7.75;5.22;;;7.10;99.90;;;;;;5031987;28;20124;-62
2023/03/17 02:29:54;;;;;;;10.93;5.20;;;7.10;99.90;;;;;;5024974;28;20034;-62
2023/03/17 02:32:19;;;;;;;10.25;5.05;;;7.10;99.90;;;;;;5031434;28;20037;-63
2023/03/17 02:34:47;;;;;;;8.07;5.50;;;7.10;99.90;;;;;;5033031;28;20407;-63
2023/03/17 02:37:13;;;;;;;9.40;5.13;;;7.10;99.90;;;;;;5028257;28;24065;-62
2023/03/17 02:39:39;;;;;;;8.57;5.50;;;7.10;99.90;;;;;;5020910;28;20069;-63
2023/03/17 02:42:05;;;;;;;8.48;5.43;;;7.10;99.90;;;;;;5029843;28;20825;-63
2023/03/17 02:44:31;;;;;;;8.73;5.70;;;7.10;99.90;;;;;;5032940;28;20492;-63
2023/03/17 02:46:57;;;;;;;8.27;5.22;;;7.10;99.90;;;;;;5028619;28;20042;-66
2023/03/17 02:49:24;;;;;;;9.98;5.80;;;7.10;99.90;;;;;;5026109;28;20065;-63
2023/03/17 02:51:50;;;;;;;9.60;5.55;;;7.00;99.90;;;;;;5031612;28;20033;-64
2023/03/17 02:54:16;;;;;;;8.35;5.50;;;7.00;99.90;;;;;;5029702;28;20042;-64
2023/03/17 02:56:42;;;;;;;8.25;5.05;;;6.90;99.90;;;;;;5032010;28;20083;-64
2023/03/17 02:59:08;;;;;;;11.23;5.20;;;6.90;99.90;;;;;;5032361;28;20495;-63
2023/03/17 03:01:34;;;;;;;8.13;4.97;;;6.80;99.90;;;;;;5033010;28;20037;-64
2023/03/17 03:04:00;;;;;;;8.37;5.00;;;6.80;99.90;;;;;;5017347;28;20041;-63
2023/03/17 03:06:25;;;;;;;8.63;4.85;;;6.80;99.90;;;;;;5032524;28;20249;-63
2023/03/17 03:08:51;;;;;;;9.90;5.20;;;6.80;99.90;;;;;;5030937;28;20419;-64
2023/03/17 03:11:18;;;;;;;8.77;4.95;;;6.80;99.90;;;;;;5020931;28;20531;-63
2023/03/17 03:13:43;;;;;;;7.88;5.28;;;6.80;99.90;;;;;;5027377;28;20037;-64
2023/03/17 03:16:09;;;;;;;7.95;4.85;;;6.80;99.90;;;;;;5032090;28;20029;-63
2023/03/17 03:18:35;;;;;;;17.92;6.18;;;6.80;99.90;;;;;;5032380;28;20079;-64
2023/03/17 03:21:03;;;;;;;9.77;5.68;;;6.70;99.90;;;;;;5019268;28;20095;-63
2023/03/17 03:23:28;;;;;;;8.55;5.10;;;6.70;99.90;;;;;;5031762;28;20535;-64
2023/03/17 03:25:54;;;;;;;9.60;5.45;;;6.70;99.90;;;;;;5032091;28;20072;-63
2023/03/17 03:28:20;;;;;;;9.15;5.30;;;6.70;99.90;;;;;;5013550;28;20442;-63
2023/03/17 03:30:46;;;;;;;8.40;4.93;;;6.70;99.90;;;;;;5020335;28;20044;-64
2023/03/17 03:33:13;;;;;;;8.65;4.50;;;6.80;99.90;;;;;;5031677;28;20037;-63
2023/03/17 03:35:39;;;;;;;7.28;4.93;;;6.80;99.90;;;;;;5027961;28;20038;-63
2023/03/17 03:38:05;;;;;;;7.70;4.93;;;6.90;99.90;;;;;;5020168;28;20396;-63
2023/03/17 03:40:31;;;;;;;9.82;5.85;;;6.90;99.90;;;;;;5032066;28;20108;-64
2023/03/17 03:42:57;;;;;;;8.05;5.20;;;6.90;99.90;;;;;;5030964;28;20571;-64
2023/03/17 03:45:23;;;;;;;8.88;5.05;;;6.90;99.90;;;;;;5012242;28;20112;-64
2023/03/17 03:47:48;;;;;;;7.90;5.00;;;6.90;99.90;;;;;;5029867;28;20037;-63
2023/03/17 03:50:14;;;;;;;7.60;5.15;;;7.00;99.90;;;;;;5031659;28;20033;-63
2023/03/17 03:52:40;;;;;;;8.20;4.78;;;7.00;99.90;;;;;;5029984;28;20041;-63
2023/03/17 03:55:06;;;;;;;8.73;5.10;;;7.00;99.90;;;;;;5020186;28;20041;-63
2023/03/17 03:57:31;;;;;;;7.63;4.60;;;7.00;99.90;;;;;;5031586;28;20044;-63
2023/03/17 03:59:57;;;;;;;8.82;5.10;;;7.10;99.90;;;;;;5031642;28;20515;-64
2023/03/17 04:02:22;;;;;;;9.48;5.00;;;7.10;99.90;;;;;;5017348;28;20038;-63
2023/03/17 04:04:48;;;;;;;8.23;4.50;;;7.10;99.90;;;;;;5029435;28;20068;-63
2023/03/17 04:07:14;;;;;;;7.72;4.45;;;7.10;99.90;;;;;;5031028;28;20037;-62
2023/03/17 04:09:40;;;;;;;6.95;4.82;;;7.10;99.90;;;;;;5024222;28;20040;-64
2023/03/17 04:12:07;;;;;;;11.10;4.70;;;7.10;99.90;;;;;;5020791;28;20034;-64
2023/03/17 04:14:32;;;;;;;9.15;4.85;;;7.10;99.90;;;;;;5031564;28;20455;-64
2023/03/17 04:16:58;;;;;;;5.93;4.40;;;7.10;99.90;;;;;;5031457;28;20487;-64
2023/03/17 04:19:23;;;;;;;8.20;4.35;;;7.10;99.90;;;;;;5019657;28;20041;-64
2023/03/17 04:21:49;;;;;;;6.90;4.45;;;7.10;99.90;;;;;;5026836;28;20040;-63
2023/03/17 04:24:15;;;;;;;6.28;4.35;;;7.10;99.90;;;;;;5031459;28;20073;-64
2023/03/17 04:26:41;;;;;;;7.82;4.47;;;7.10;99.90;;;;;;5031816;28;20475;-64
2023/03/17 04:29:14;;;;;;;6.60;4.60;;;7.10;99.90;;;;;;5011602;28;20041;-64
2023/03/17 04:31:40;;;;;;;8.20;4.45;;;7.10;99.90;;;;;;5004752;28;20041;-64
2023/03/17 04:34:06;;;;;;;7.55;4.55;;;7.20;99.90;;;;;;5008851;28;20088;-63
2023/03/17 04:36:31;;;;;;;7.32;4.63;;;7.20;99.90;;;;;;5014544;28;20069;-64
2023/03/17 04:38:57;;;;;;;8.15;4.47;;;7.20;99.90;;;;;;5031432;28;20577;-63
2023/03/17 04:41:23;;;;;;;7.40;4.43;;;7.30;99.90;;;;;;5035399;28;20048;-63
2023/03/17 04:43:48;;;;;;;6.43;4.60;;;7.30;99.90;;;;;;5020190;28;20038;-63
2023/03/17 04:46:15;;;;;;;8.52;4.95;;;7.30;99.90;;;;;;5026782;28;20045;-64
2023/03/17 04:48:40;;;;;;;6.82;4.10;;;7.30;99.90;;;;;;5034900;28;20046;-64
2023/03/17 04:51:06;;;;;;;8.50;4.72;;;7.30;99.90;;;;;;5026793;28;21036;-64
2023/03/17 04:53:31;;;;;;;8.90;4.68;;;7.20;99.90;;;;;;5026669;28;20091;-64
2023/03/17 04:55:57;;;;;;;8.07;4.15;;;7.20;99.90;;;;;;5034942;28;20098;-64
2023/03/17 04:58:23;;;;;;;6.43;4.70;;;7.20;99.90;;;;;;5034758;28;20045;-64
2023/03/17 05:00:49;;;;;;;7.20;4.65;;;7.20;99.90;;;;;;5021639;28;20038;-64
2023/03/17 05:03:15;;;;;;;8.32;4.53;;;7.20;99.90;;;;;;5033237;28;20049;-64
2023/03/17 05:05:40;;;;;;;11.32;4.80;;;7.20;99.90;;;;;;5034850;28;20132;-63
2023/03/17 05:08:06;;;;;;;8.77;4.45;;;7.20;99.90;;;;;;5027787;28;20448;-64
2023/03/17 05:10:31;;;;;;;7.25;4.53;;;7.20;99.90;;;;;;5015397;28;20400;-64
2023/03/17 05:12:57;;;;;;;8.65;4.60;;;7.30;99.90;;;;;;5034607;28;20033;-64
2023/03/17 05:15:22;;;;;;;8.80;4.60;;;7.30;99.90;;;;;;5034776;28;20172;-64
2023/03/17 05:17:48;;;;;;;8.10;4.63;;;7.40;99.90;;;;;;5027912;28;20069;-64
2023/03/17 05:20:14;;;;;;;8.45;4.60;;;7.40;99.90;;;;;;5019708;28;20050;-64
2023/03/17 05:22:40;;;;;;;8.15;4.57;;;7.40;99.90;;;;;;5030942;28;20432;-64
2023/03/17 05:25:05;;;;;;;7.95;4.78;;;7.40;99.90;;;;;;5022465;28;20068;-64
2023/03/17 05:27:31;;;;;;;8.20;4.55;;;7.40;99.90;;;;;;5022063;28;20105;-64
2023/03/17 05:29:57;;;;;;;9.05;4.30;;;7.40;99.90;;;;;;5032374;28;20034;-64
2023/03/17 05:32:23;;;;;;;7.32;4.82;;;7.40;99.90;;;;;;5032539;28;20044;-64
2023/03/17 05:34:49;;;;;;;7.72;4.53;;;7.40;99.90;;;;;;5013462;28;20034;-64
2023/03/17 05:37:15;;;;;;;7.45;4.80;;;7.40;99.90;;;;;;5026429;28;20085;-63
2023/03/17 05:39:41;;;;;;;9.13;4.60;;;7.40;99.90;;;;;;5034118;28;20049;-64
2023/03/17 05:42:07;;;;;;;6.28;4.72;;;7.40;99.90;;;;;;5015507;28;20038;-64
2023/03/17 05:44:33;;;;;;;7.18;4.75;;;7.40;99.90;;;;;;5058838;22;20127;-64
2023/03/17 05:46:58;;;;;;;8.23;4.80;;;7.40;99.90;;;;;;5049527;28;20049;-63
2023/03/17 05:49:27;;;;;;;8.13;4.78;;;7.40;99.90;;;;;;5041789;28;20021;-64
2023/03/17 05:51:54;;;;;;;8.63;4.88;;;7.40;99.90;;;;;;5053805;28;20043;-64
2023/03/17 05:54:21;;;;;;;9.23;4.70;;;7.40;99.90;;;;;;5053929;28;20064;-63
2023/03/17 05:56:46;;;;;;;8.07;4.45;;;7.40;99.90;;;;;;5050547;28;20041;-63
2023/03/17 05:59:14;;;;;;;7.78;4.78;;;7.40;99.90;;;;;;5052427;28;20037;-64
2023/03/17 06:01:40;;;;;;;8.48;5.10;;;7.30;99.90;;;;;;5049784;28;20460;-63
2023/03/17 06:04:06;;;;;;;8.68;4.68;;;7.40;99.90;;;;;;5035485;28;20041;-64
2023/03/17 06:06:32;;;;;;;11.75;4.75;;;7.30;99.90;;;;;;5053807;28;20041;-64
2023/03/17 06:08:58;;;;;;;7.07;4.78;;;7.40;99.90;;;;;;5047154;28;20028;-64
2023/03/17 06:11:25;;;;;;;8.43;5.22;;;7.40;99.90;;;;;;5048189;28;20040;-64
2023/03/17 06:13:51;;;;;;;8.18;4.45;;;7.50;99.90;;;;;;5053519;28;20037;-64
2023/03/17 06:16:17;;;;;;;10.15;4.97;;;7.50;99.90;;;;;;5053607;28;20033;-64
2023/03/17 06:18:43;;;;;;;7.97;4.53;;;7.50;99.90;;;;;;5042053;28;20037;-63
2023/03/17 06:21:09;;;;;;;7.45;4.75;;;7.60;99.90;;;;;;5050771;28;20418;-63
2023/03/17 06:23:35;;;;;;;8.60;4.88;;;7.60;99.90;;;;;;5053460;28;20044;-63
2023/03/17 06:26:01;;;;;;;8.45;4.90;;;7.60;99.90;;;;;;5053677;28;20041;-63
2023/03/17 06:28:26;;;;;;;10.75;5.20;;;7.60;99.90;;;;;;5040787;28;20037;-64
2023/03/17 06:30:52;;;;;;;8.55;4.47;;;7.80;99.90;;;;;;5052497;28;20087;-63
2023/03/17 06:33:18;;;;;;;8.82;5.03;;;7.90;99.90;;;;;;5050626;28;20041;-63
2023/03/17 06:35:43;;;;;;;11.10;4.88;;;8.00;99.90;;;;;;5038773;28;20048;-63
2023/03/17 06:38:09;;;;;;;11.35;5.05;;;8.10;99.90;;;;;;5050565;28;20049;-63
2023/03/17 06:40:35;;;;;;;6.38;4.20;;;8.20;99.90;;;;;;5053124;28;20048;-63
2023/03/17 06:43:01;;;;;;;7.93;4.85;;;8.30;99.90;;;;;;5047701;28;20451;-63
2023/03/17 06:45:27;;;;;;;10.30;4.78;;;8.40;99.90;;;;;;5037983;28;20122;-63
2023/03/17 06:47:53;;;;;;;10.25;4.78;;;8.50;99.90;;;;;;5052564;28;20080;-63
2023/03/17 06:50:19;;;;;;;8.73;5.00;;;8.60;99.90;;;;;;5048859;28;20037;-63
2023/03/17 06:52:45;;;;;;;7.57;4.60;;;8.70;99.90;;;;;;5045664;28;20065;-63
2023/03/17 06:55:11;;;;;;;9.05;4.22;;;8.80;99.90;;;;;;5050722;28;20536;-64
2023/03/17 06:57:36;;;;;;;6.55;4.45;;;8.90;99.90;;;;;;5052583;28;20047;-63
2023/03/17 07:00:05;;;;;;;8.90;4.50;;;8.90;99.90;;;;;;5041363;28;20092;-64
2023/03/17 07:02:32;;;;;;;9.05;4.60;;;9.00;99.90;;;;;;5037860;28;20130;-63
2023/03/17 07:04:59;;;;;;;6.85;4.45;;;9.00;99.90;;;;;;5050694;28;20143;-63
2023/03/17 07:07:26;;;;;;;11.10;4.90;;;9.00;99.90;;;;;;5033537;28;20410;-63
2023/03/17 07:09:52;;;;;;;13.10;4.72;;;9.00;99.90;;;;;;5045097;28;20037;-63
2023/03/17 07:12:18;;;;;;;7.38;4.20;;;9.00;99.90;;;;;;5042706;28;20403;-64
2023/03/17 07:14:44;;;;;;;7.10;4.75;;;9.00;99.90;;;;;;5049000;28;20095;-63
2023/03/17 07:17:12;;;;;;;8.25;4.80;;;9.00;99.90;;;;;;5037049;28;20037;-64
2023/03/17 07:19:38;;;;;;;6.47;4.40;;;9.00;99.90;;;;;;5051233;28;20055;-63
2023/03/17 07:22:04;;;;;;;7.03;4.57;;;9.00;99.90;;;;;;5051050;28;20068;-63
2023/03/17 07:24:30;;;;;;;9.55;4.50;;;9.00;99.90;;;;;;5041359;28;20458;-64
2023/03/17 07:26:55;;;;;;;10.32;4.63;;;9.00;99.90;;;;;;5041741;28;20025;-63
2023/03/17 07:29:21;;;;;;;11.55;4.47;;;9.10;99.90;;;;;;5050462;28;20553;-63
2023/03/17 07:31:47;;;;;;;7.15;4.38;;;9.10;99.90;;;;;;5051316;28;20025;-63
2023/03/17 07:34:12;;;;;;;9.57;4.72;;;9.20;99.90;;;;;;5040291;28;20499;-64
2023/03/17 07:36:38;;;;;;;6.53;4.63;;;9.30;99.90;;;;;;5047113;28;20041;-63
2023/03/17 07:39:04;;;;;;;10.63;4.78;;;9.40;99.90;;;;;;5051020;28;20033;-63
2023/03/17 07:41:30;;;;;;;7.53;4.50;;;9.40;99.90;;;;;;5040164;28;20040;-63
2023/03/17 07:43:56;;;;;;;6.38;4.45;;;9.40;99.90;;;;;;5043261;28;20422;-64
2023/03/17 07:46:22;;;;;;;8.15;5.43;;;9.50;99.90;;;;;;5042307;28;20072;-63
2023/03/17 07:48:47;;;;;;;8.52;5.00;;;9.60;99.90;;;;;;5051677;28;20075;-64
2023/03/17 07:51:15;;;;;;;7.22;4.65;;;9.70;99.90;;;;;;5040363;28;20037;-63
2023/03/17 07:53:41;;;;;;;8.38;4.93;;;9.70;99.90;;;;;;5046204;28;20036;-64
2023/03/17 07:56:08;;;;;;;9.35;5.30;;;9.80;99.90;;;;;;5051584;28;20170;-64
2023/03/17 07:58:34;;;;;;;9.60;4.65;;;9.90;99.90;;;;;;5042056;28;20056;-64
2023/03/17 08:01:00;;;;;;;9.48;5.00;;;9.90;99.90;;;;;;5040024;28;20086;-63
2023/03/17 08:03:26;;;;;;;7.70;4.70;;;9.90;99.90;;;;;;5051687;28;20037;-63
2023/03/17 08:05:54;;;;;;;7.05;4.38;;;9.90;99.90;;;;;;5051720;28;20044;-63
2023/03/17 08:08:21;;;;;;;9.15;4.90;;;10.00;99.90;;;;;;5045291;28;20037;-63
2023/03/17 08:10:47;;;;;;;9.82;4.75;;;10.10;99.90;;;;;;5046999;28;20033;-63
2023/03/17 08:13:13;;;;;;;9.13;5.25;;;10.20;99.90;;;;;;5049776;28;20684;-63
2023/03/17 08:15:39;;;;;;;10.60;5.68;;;10.30;99.90;;;;;;5042478;28;20124;-63
2023/03/17 08:18:05;;;;;;;9.15;5.10;;;10.30;99.90;;;;;;5049515;28;20544;-63
2023/03/17 08:20:32;;;;;;;9.50;5.05;;;10.40;99.90;;;;;;5051459;28;20051;-63
2023/03/17 08:22:58;;;;;;;9.05;5.40;;;10.40;99.90;;;;;;5034899;28;20051;-64
2023/03/17 08:25:23;;;;;;;8.38;4.97;;;10.50;99.90;;;;;;5050583;28;20028;-63
2023/03/17 08:27:50;;;;;;;8.00;5.30;;;10.60;99.90;;;;;;5050203;28;20056;-63
2023/03/17 08:30:16;;;;;;;11.27;5.22;;;10.60;99.90;;;;;;5045613;28;20116;-63
2023/03/17 08:32:42;;;;;;;9.52;5.47;;;10.70;99.90;;;;;;5036059;28;20036;-63
2023/03/17 08:35:12;;;;;;;10.82;5.80;;;10.80;99.90;;;;;;5048416;28;20091;-63
2023/03/17 08:37:38;;;;;;;9.43;5.23;;;10.90;99.90;;;;;;5051229;28;20036;-63
2023/03/17 08:40:04;;;;;;;7.45;5.03;;;10.90;99.90;;;;;;5042398;28;20408;-63
2023/03/17 08:42:30;;;;;;;9.38;5.50;;;11.00;99.90;;;;;;5043330;28;20037;-64
2023/03/17 08:44:56;;;;;;;10.65;5.05;;;11.10;99.90;;;;;;5051048;28;20080;-63
2023/03/17 08:47:22;;;;;;;8.77;5.43;;;11.10;99.90;;;;;;5033623;28;20036;-65
2023/03/17 08:49:49;;;;;;;7.20;4.53;;;11.10;99.90;;;;;;5031062;28;20072;-64
2023/03/17 08:52:15;;;;;;;8.13;4.97;;;11.10;99.90;;;;;;5049388;28;20037;-64
2023/03/17 08:54:42;;;;;;;10.57;5.35;;;11.10;99.90;;;;;;5049658;28;20544;-62
2023/03/17 08:57:07;;;;;;;9.82;5.15;;;11.10;99.90;;;;;;5038647;28;20077;-63
2023/03/17 08:59:33;;;;;;;8.98;5.60;;;11.10;99.90;;;;;;5046410;28;20075;-62
2023/03/17 09:01:59;;;;;;;10.23;5.03;;;11.20;99.90;;;;;;5050913;28;20125;-63
2023/03/17 09:04:25;;;;;;;8.73;5.10;;;11.30;99.90;;;;;;5036313;28;20040;-63
2023/03/17 09:06:52;;;;;;;11.27;5.13;;;11.40;99.90;;;;;;5035962;28;20041;-62
2023/03/17 09:09:17;;;;;;;9.98;5.05;;;11.40;99.90;;;;;;5050208;28;20507;-64
2023/03/17 09:11:43;;;;;;;9.18;5.65;;;11.40;99.90;;;;;;5046186;28;20072;-63
2023/03/17 09:14:08;;;;;;;9.93;6.07;;;11.40;99.90;;;;;;5044121;28;20087;-63
2023/03/17 09:16:34;;;;;;;8.98;5.43;;;11.40;99.90;;;;;;5050643;28;20111;-63
2023/03/17 09:19:03;;;;;;;9.20;5.05;;;11.40;99.90;;;;;;5050586;28;20033;-63
2023/03/17 09:21:28;;;;;;;9.45;5.20;;;11.40;99.90;;;;;;5048137;28;20044;-62
2023/03/17 09:23:54;;;;;;;12.27;5.85;;;11.40;99.90;;;;;;5041384;28;20403;-63
2023/03/17 09:26:19;;;;;;;9.50;5.13;;;11.50;99.90;;;;;;5045981;28;20445;-63
2023/03/17 09:28:45;;;;;;;9.05;5.70;;;11.60;99.90;;;;;;5051256;28;20033;-63
2023/03/17 09:31:11;;;;;;;7.75;5.65;;;11.80;99.90;;;;;;5054162;28;20040;-63
2023/03/17 09:33:40;;;;;;;10.90;5.70;;;11.90;99.90;;;;;;5048503;28;20048;-63
2023/03/17 09:36:07;;;;;;;9.30;5.78;;;11.90;99.90;;;;;;5038647;28;20029;-64
2023/03/17 09:38:33;;;;;;;11.15;6.10;;;11.80;99.90;;;;;;5043983;28;20044;-63
2023/03/17 09:41:22;;;;;;;10.68;6.00;;;11.80;99.90;;;;;;5054557;28;20067;-63
2023/03/17 09:44:07;;;;;;;8.80;6.10;;;11.90;99.90;;;;;;5036624;28;20037;-63
2023/03/17 09:46:55;;;;;;;8.13;5.63;;;12.00;99.90;;;;;;5046634;28;20134;-63
2023/03/17 09:49:45;;;;;;;10.27;6.40;;;12.10;99.90;;;;;;5053853;28;20548;-63
2023/03/17 09:52:17;;;;;;;8.60;6.03;;;12.00;99.90;;;;;;5048478;28;20094;-63
2023/03/17 09:54:45;;;;;;;10.60;6.40;;;12.00;99.90;;;;;;5042781;28;20414;-63
2023/03/17 09:57:15;;;;;;;9.57;6.35;;;12.00;99.90;;;;;;5051528;28;20472;-63
2023/03/17 10:00:10;;;;;;;9.85;6.13;;;12.20;99.90;;;;;;5054330;28;20052;-63
2023/03/17 10:02:36;;;;;;;10.75;6.35;;;12.20;99.90;;;;;;5039450;28;20047;-63
2023/03/17 10:05:18;;;;;;;10.48;6.38;;;12.30;99.90;;;;;;5053077;28;20041;-63
2023/03/17 10:07:56;;;;;;;12.15;6.70;;;12.50;99.90;;;;;;5053815;28;20049;-63
2023/03/17 10:10:52;;;;;;;13.77;7.70;;;12.60;99.90;;;;;;5050476;28;20037;-62
2023/03/17 10:13:49;;;;;;;10.38;6.22;;;12.80;99.90;;;;;;5050666;28;20096;-62
2023/03/17 10:16:21;;;;;;;11.45;6.20;;;12.80;99.90;;;;;;5053725;28;20049;-63
2023/03/17 10:19:10;;;;;;;8.80;6.32;;;13.00;99.90;;;;;;5049207;28;20033;-63
2023/03/17 10:21:46;;;;;;;14.07;6.63;;;13.10;99.90;;;;;;5049009;28;20499;-63
2023/03/17 10:24:12;;;;;;;11.40;5.90;;;13.20;99.90;;;;;;5050341;28;20040;-63
2023/03/17 10:26:54;;;;;;;10.32;6.32;;;13.30;99.90;;;;;;5037810;28;20033;-63
2023/03/17 10:29:21;;;;;;;;;;;13.40;99.90;;;;;;5052694;28;20049;-63
2023/03/17 10:31:48;;;;;;;11.85;6.47;;;13.40;99.90;;;;;;5053254;28;19921;-63
2023/03/17 10:34:15;;;;;;;9.32;6.30;;;13.60;99.90;;;;;;5029931;28;20059;-64
2023/03/17 10:36:52;;;;;;;16.92;7.10;;;13.60;99.90;;;;;;5042995;28;20044;-62
2023/03/17 10:39:20;;;;;;;11.55;6.78;;;13.80;99.90;;;;;;5051500;28;20048;-63
2023/03/17 10:41:54;;;;;;;11.23;7.10;;;13.80;99.90;;;;;;5048370;28;20115;-63
2023/03/17 10:44:49;;;;;;;13.48;7.13;;;14.00;99.90;;;;;;5046162;28;20033;-63
2023/03/17 10:47:38;;;;;;;11.85;6.90;;;14.10;99.90;;;;;;5040723;28;20114;-63
2023/03/17 10:50:31;;;;;;;11.80;6.82;;;14.20;99.90;;;;;;5052737;28;20033;-63
2023/03/17 10:53:08;;;;;;;13.00;7.15;;;14.20;99.90;;;;;;5023988;28;20455;-63
2023/03/17 10:55:36;;;;;;;13.80;7.43;;;14.20;99.90;;;;;;5045222;28;20037;-63
2023/03/17 10:58:06;;;;;;;9.95;6.82;;;14.40;99.90;;;;;;5048172;28;20051;-63
2023/03/17 11:00:37;;;;;;;13.32;7.20;;;14.50;99.90;;;;;;5048037;28;20033;-63
2023/03/17 11:03:21;;;;;;;10.32;6.65;;;14.70;99.90;;;;;;5019040;28;20057;-63
2023/03/17 11:06:11;;;;;;;10.98;6.63;;;14.90;99.90;;;;;;5037670;28;20033;-63
2023/03/17 11:08:44;;;;;;;13.25;6.93;;;15.00;99.90;;;;;;5036758;28;20033;-64
2023/03/17 11:11:23;;;;;;;9.93;6.82;;;15.20;99.90;;;;;;5047468;28;20040;-63
2023/03/17 11:13:48;;;;;;;16.83;7.70;;;15.30;99.90;;;;;;5052467;28;20029;-63
2023/03/17 11:16:22;;;;;;;11.10;6.82;;;15.50;99.90;;;;;;5052500;28;20078;-63
2023/03/17 11:18:53;;;;;;;12.45;7.20;;;15.60;99.90;;;;;;5037991;28;20041;-63
2023/03/17 11:21:28;;;;;;;13.65;6.55;;;15.70;99.90;;;;;;5051571;28;20040;-62
2023/03/17 11:24:01;;;;;;;9.55;6.50;;;15.80;99.90;;;;;;5040013;28;20025;-63
2023/03/17 11:26:29;;;;;;;9.98;6.72;;;15.70;99.90;;;;;;5034000;28;20037;-62
2023/03/17 11:29:33;;;;;;;12.32;6.45;;;15.60;99.90;;;;;;5046332;28;20086;-63
2023/03/17 11:32:11;;;;;;;12.07;7.03;;;15.50;99.90;;;;;;5031104;28;20090;-62
2023/03/17 11:34:58;;;;;;;11.18;6.47;;;15.60;99.90;;;;;;5036876;28;20113;-64
2023/03/17 11:37:33;;;;;;;10.23;6.25;;;15.40;99.90;;;;;;5044338;28;20614;-63
2023/03/17 11:40:17;;;;;;;10.32;6.22;;;15.30;99.90;;;;;;5048455;28;20029;-63
2023/03/17 11:42:51;;;;;;;11.05;6.50;;;15.20;99.90;;;;;;5075564;22;20025;-64
2023/03/17 11:45:48;;;;;;;12.60;6.80;;;15.20;99.90;;;;;;5042919;28;20298;-63
2023/03/17 11:48:41;;;;;;;12.18;6.80;;;15.20;99.90;;;;;;5048687;28;20041;-64
2023/03/17 11:51:27;;;;;;;11.20;5.78;;;15.20;99.90;;;;;;5039459;28;20108;-63
2023/03/17 11:54:09;;;;;;;9.43;6.30;;;15.10;99.90;;;;;;5051202;28;20487;-64
2023/03/17 11:56:54;;;;;;;10.38;6.50;;;15.00;99.90;;;;;;5034186;28;20049;-63
2023/03/17 11:59:39;;;;;;;10.68;6.30;;;14.90;99.80;;;;;;5042539;28;20495;-64
2023/03/17 12:02:35;;;;;;;9.57;6.40;;;14.80;99.90;;;;;;5041439;28;20044;-64
2023/03/17 12:05:11;;;;;;;10.10;6.35;;;14.60;99.90;;;;;;5048472;28;20084;-64
2023/03/17 12:07:46;;;;;;;9.48;6.20;;;14.70;99.90;;;;;;5050927;28;20067;-64
2023/03/17 12:10:38;;;;;;;10.85;6.53;;;14.80;99.90;;;;;;5049820;28;20396;-63
2023/03/17 12:13:15;;;;;;;10.20;6.60;;;14.70;99.70;;;;;;5049051;28;20033;-64
2023/03/17 12:15:47;;;;;;;9.55;5.97;;;14.80;99.90;;;;;;5038072;28;20033;-63
2023/03/17 12:18:37;;;;;;;10.63;7.18;;;14.80;99.90;;;;;;5036198;28;20124;-63
2023/03/17 12:21:19;;;;;;;15.15;6.57;;;15.00;99.90;;;;;;5049910;28;20372;-64
2023/03/17 12:23:59;;;;;;;10.73;6.30;;;15.00;99.90;;;;;;5051219;28;20045;-63
2023/03/17 12:26:40;;;;;;;11.00;6.50;;;15.00;99.90;;;;;;5040502;28;20048;-63
2023/03/17 12:29:17;;;;;;;9.27;5.97;;;15.10;99.90;;;;;;5047569;28;20041;-63
2023/03/17 12:32:02;;;;;;;8.93;6.03;;;15.10;99.90;;;;;;5048213;28;20414;-63
2023/03/17 12:34:31;;;;;;;8.65;5.82;;;15.20;99.50;;;;;;5045135;28;20036;-63
2023/03/17 12:36:57;;;;;;;9.35;6.60;;;15.20;99.90;;;;;;5050724;28;20447;-63
2023/03/17 12:39:33;;;;;;;10.75;6.25;;;15.30;99.90;;;;;;5050091;28;20064;-64
2023/03/17 12:42:23;;;;;;;12.15;6.07;;;15.40;99.90;;;;;;5035164;28;20033;-64
2023/03/17 12:45:02;;;;;;;9.13;6.03;;;15.50;99.90;;;;;;5045314;28;20037;-64
2023/03/17 12:47:42;;;;;;;9.32;5.90;;;15.60;99.90;;;;;;5011099;28;20037;-63
2023/03/17 12:50:20;;;;;;;9.15;6.13;;;15.60;99.90;;;;;;5033851;28;20038;-64
2023/03/17 12:53:04;;;;;;;9.77;6.68;;;15.60;99.90;;;;;;5044459;28;20136;-63
2023/03/17 12:55:32;;;;;;;9.02;6.10;;;15.50;99.20;;;;;;5031226;28;20037;-63
2023/03/17 12:58:14;;;;;;;9.20;6.13;;;15.60;99.90;;;;;;5032301;28;20137;-63
2023/03/17 13:00:49;;;;;;;10.80;6.60;;;15.80;99.90;;;;;;5041578;28;20086;-63
2023/03/17 13:03:24;;;;;;;11.35;6.88;;;16.10;99.90;;;;;;5052899;28;20041;-63